Time;durP1;ratioP1;P1;durP2;ratioP2;P2;SDS_P1;SDS_P2;PMS_P1;PMS_P2;Temp;Humidity;BMP_temperature;BMP_pressure;BME280_temperature;BME280_humidity;BME280_pressure;Samples;Min_cycle;Max_cycle;Signal;HPM_P1;HPM_P2
2022/03/17 00:00:31;;;;;;;128.23;63.42;;;;;;;1.65;100.00;100324.84;2073206;28;20200;-71
2022/03/17 00:01:42;;;;;;;134.35;64.93;;;;;;;1.66;100.00;100326.47;2074181;28;20180;-70
2022/03/17 00:02:48;;;;;;;124.93;64.85;;;;;;;1.66;100.00;100323.81;2074358;28;20196;-71
2022/03/17 00:03:53;;;;;;;121.18;64.22;;;;;;;1.65;100.00;100330.09;2074342;28;20196;-71
2022/03/17 00:05:00;;;;;;;133.45;66.07;;;;;;;1.64;100.00;100328.47;2074489;28;20184;-70
2022/03/17 00:06:06;;;;;;;123.22;63.67;;;;;;;1.61;100.00;100328.88;2073079;28;20672;-70
2022/03/17 00:07:10;;;;;;;123.78;63.80;;;;;;;1.60;100.00;100331.72;2073823;28;20251;-70
2022/03/17 00:08:13;;;;;;;118.25;60.97;;;;;;;1.59;100.00;100332.75;2074367;28;20197;-71
2022/03/17 00:09:17;;;;;;;121.25;65.22;;;;;;;1.57;100.00;100335.59;2074378;28;20188;-71
2022/03/17 00:10:24;;;;;;;134.50;65.75;;;;;;;1.57;100.00;100340.03;2073551;28;20576;-71
2022/03/17 00:11:26;;;;;;;129.27;65.45;;;;;;;1.57;100.00;100338.22;2073852;28;20610;-71
2022/03/17 00:12:33;;;;;;;120.38;63.90;;;;;;;1.56;100.00;100341.03;2073248;28;20733;-70
2022/03/17 00:13:38;;;;;;;123.45;64.20;;;;;;;1.53;100.00;100337.00;2073685;28;20192;-71
2022/03/17 00:14:39;;;;;;;121.72;64.22;;;;;;;1.51;100.00;100333.75;2073638;28;20577;-70
2022/03/17 00:15:41;;;;;;;120.75;65.00;;;;;;;1.50;100.00;100334.78;2073850;28;20216;-70
2022/03/17 00:16:44;;;;;;;121.00;64.03;;;;;;;1.50;100.00;100332.16;2073242;28;20216;-71
2022/03/17 00:17:54;;;;;;;125.03;66.35;;;;;;;1.49;100.00;100329.72;2073692;28;20243;-70
2022/03/17 00:18:57;;;;;;;121.10;64.30;;;;;;;1.47;100.00;100331.72;2073866;28;20287;-70
2022/03/17 00:20:10;;;;;;;122.22;64.78;;;;;;;1.44;100.00;100332.16;2073682;28;20192;-70
2022/03/17 00:21:14;;;;;;;116.45;63.10;;;;;;;1.42;100.00;100335.00;2073767;28;20220;-71
2022/03/17 00:22:18;;;;;;;115.85;62.85;;;;;;;1.40;100.00;100337.03;2073821;28;20614;-70
2022/03/17 00:23:26;;;;;;;120.07;64.13;;;;;;;1.36;100.00;100330.53;2074076;28;20228;-71
2022/03/17 00:24:35;;;;;;;121.05;65.45;;;;;;;1.35;100.00;100344.69;2074223;28;20623;-71
2022/03/17 00:25:41;;;;;;;115.95;64.20;;;;;;;1.33;100.00;100346.75;2074259;28;20177;-70
2022/03/17 00:26:47;;;;;;;116.45;64.18;;;;;;;1.29;100.00;100348.94;2073473;28;20211;-70
2022/03/17 00:27:50;;;;;;;133.00;67.00;;;;;;;1.24;100.00;100343.50;2073203;28;20232;-70
2022/03/17 00:28:54;;;;;;;125.93;64.40;;;;;;;1.19;100.00;100342.50;2074005;28;20208;-70
2022/03/17 00:29:59;;;;;;;121.80;64.90;;;;;;;1.17;100.00;100345.31;2073851;28;20188;-70
2022/03/17 00:31:06;;;;;;;122.78;63.92;;;;;;;1.15;100.00;100347.34;2074207;28;20275;-70
2022/03/17 00:32:15;;;;;;;134.93;67.35;;;;;;;1.13;100.00;100346.75;2074196;28;20196;-71
2022/03/17 00:33:19;;;;;;;133.77;68.07;;;;;;;1.13;100.00;100344.94;2074141;28;20291;-70
2022/03/17 00:34:22;;;;;;;129.07;67.32;;;;;;;1.13;100.00;100355.44;2074222;28;20192;-70
2022/03/17 00:35:42;;;;;;;139.50;66.70;;;;;;;1.13;100.00;100349.38;2073503;28;20196;-70
2022/03/17 00:36:47;;;;;;;124.05;66.55;;;;;;;1.11;100.00;100349.56;2073471;28;20227;-71
2022/03/17 00:37:57;;;;;;;136.55;68.32;;;;;;;1.09;100.00;100353.41;2074090;28;20211;-70
2022/03/17 00:38:59;;;;;;;130.38;68.63;;;;;;;1.05;100.00;100355.66;2073971;28;20698;-71
2022/03/17 00:40:06;;;;;;;133.68;67.18;;;;;;;1.05;100.00;100350.38;2074127;28;20192;-70
2022/03/17 00:41:09;;;;;;;129.23;68.38;;;;;;;1.03;100.00;100344.50;2074127;28;20254;-70
2022/03/17 00:42:11;;;;;;;134.50;65.95;;;;;;;1.00;100.00;100342.28;2073358;28;20266;-71
2022/03/17 00:43:15;;;;;;;130.00;70.38;;;;;;;0.98;100.00;100346.94;2073822;28;20694;-71
2022/03/17 00:44:21;;;;;;;136.32;69.72;;;;;;;0.96;100.00;100345.53;2074391;28;20221;-71
2022/03/17 00:45:26;;;;;;;133.27;69.03;;;;;;;0.93;100.00;100345.91;2073507;28;20216;-71
2022/03/17 00:46:33;;;;;;;125.72;67.85;;;;;;;0.91;100.00;100351.38;2074034;28;20624;-70
2022/03/17 00:47:37;;;;;;;128.48;67.00;;;;;;;0.90;100.00;100336.63;2074026;28;20193;-70
2022/03/17 00:48:45;;;;;;;131.88;71.18;;;;;;;0.88;100.00;100345.72;2073245;28;20287;-70
2022/03/17 00:49:48;;;;;;;140.30;70.85;;;;;;;0.82;100.00;100344.69;2073397;28;20265;-70
2022/03/17 00:50:55;;;;;;;143.57;70.88;;;;;;;0.81;100.00;100348.34;2073893;28;20681;-71
2022/03/17 00:51:58;;;;;;;135.55;70.55;;;;;;;0.80;100.00;100346.72;2073757;28;20299;-70
2022/03/17 00:53:01;;;;;;;131.73;70.43;;;;;;;0.75;100.00;100349.13;2065723;28;20197;-71
2022/03/17 00:54:08;;;;;;;147.85;72.43;;;;;;;0.73;100.00;100359.84;2066465;28;20754;-70
2022/03/17 00:55:16;;;;;;;147.70;73.43;;;;;;;0.71;100.00;100361.06;2073353;28;20200;-71
2022/03/17 00:56:23;;;;;;;141.10;74.88;;;;;;;0.69;100.00;100365.69;2074234;28;20196;-71
2022/03/17 00:57:28;;;;;;;146.10;74.28;;;;;;;0.65;100.00;100364.47;2073629;28;20196;-70
2022/03/17 00:58:29;;;;;;;144.65;75.80;;;;;;;0.64;100.00;100366.28;2073447;28;20279;-71
2022/03/17 00:59:32;;;;;;;144.63;74.90;;;;;;;0.62;100.00;100359.63;2074239;28;20243;-70
2022/03/17 01:00:38;;;;;;;156.40;77.75;;;;;;;0.62;100.00;100362.25;2074152;28;20215;-70
2022/03/17 01:01:46;;;;;;;142.82;78.28;;;;;;;0.60;100.00;100361.63;2073955;28;20184;-70
2022/03/17 01:02:53;;;;;;;143.98;78.15;;;;;;;0.55;100.00;100354.34;2073993;28;20731;-70
2022/03/17 01:03:58;;;;;;;154.30;77.32;;;;;;;0.52;100.00;100360.81;2073240;28;20242;-70
2022/03/17 01:05:00;;;;;;;149.70;77.18;;;;;;;0.52;100.00;100354.72;2073678;28;20743;-70
2022/03/17 01:06:04;;;;;;;152.93;78.17;;;;;;;0.52;100.00;100359.97;2073396;28;20580;-70
2022/03/17 01:07:12;;;;;;;153.00;80.75;;;;;;;0.50;100.00;100362.81;2073062;28;20228;-70
2022/03/17 01:08:24;;;;;;;151.93;76.55;;;;;;;0.48;100.00;100353.53;2073396;28;20188;-70
2022/03/17 01:09:30;;;;;;;148.10;75.75;;;;;;;0.48;100.00;100356.97;2072895;28;20204;-70
2022/03/17 01:10:38;;;;;;;152.93;77.93;;;;;;;0.45;100.00;100359.19;2073284;28;20207;-71
2022/03/17 01:11:43;;;;;;;139.18;76.13;;;;;;;0.49;100.00;100360.38;2073579;28;20173;-70
2022/03/17 01:12:46;;;;;;;141.07;72.85;;;;;;;0.46;100.00;100358.97;2073953;28;20191;-71
2022/03/17 01:13:51;;;;;;;153.40;78.30;;;;;;;0.44;100.00;100357.56;2074053;28;20719;-70
2022/03/17 01:14:57;;;;;;;139.30;73.47;;;;;;;0.40;100.00;100361.56;2073911;28;20299;-70
2022/03/17 01:16:00;;;;;;;150.82;76.72;;;;;;;0.39;100.00;100368.63;2073915;28;20192;-71
2022/03/17 01:17:08;;;;;;;149.88;74.30;;;;;;;0.37;100.00;100365.41;2072761;28;20291;-69
2022/03/17 01:18:14;;;;;;;154.65;76.00;;;;;;;0.36;100.00;100366.41;2073555;28;20176;-69
2022/03/17 01:19:19;;;;;;;147.45;74.90;;;;;;;0.32;100.00;100370.44;2073125;28;20220;-70
2022/03/17 01:20:20;;;;;;;137.98;72.35;;;;;;;0.34;100.00;100367.59;2073178;28;20295;-70
2022/03/17 01:21:26;;;;;;;143.88;74.20;;;;;;;0.29;100.00;100362.97;2073065;28;20695;-70
2022/03/17 01:22:35;;;;;;;156.10;74.70;;;;;;;0.30;100.00;100376.88;2074178;28;20508;-70
2022/03/17 01:23:40;;;;;;;149.25;75.03;;;;;;;0.25;100.00;100369.59;2073968;28;20232;-70
2022/03/17 01:24:47;;;;;;;146.55;74.95;;;;;;;0.26;100.00;100371.19;2073428;28;20196;-70
2022/03/17 01:25:51;;;;;;;144.02;73.38;;;;;;;0.21;100.00;100371.00;2073978;28;20189;-70
2022/03/17 01:26:52;;;;;;;142.13;77.47;;;;;;;0.21;100.00;100371.00;2073847;28;20219;-70
2022/03/17 01:27:54;;;;;;;144.75;73.35;;;;;;;0.21;100.00;100373.63;2073962;28;20196;-70
2022/03/17 01:28:57;;;;;;;146.25;74.68;;;;;;;0.17;100.00;100373.19;2073971;28;20188;-70
2022/03/17 01:30:07;;;;;;;147.40;74.65;;;;;;;0.18;100.00;100379.28;2073235;28;20659;-70
2022/03/17 01:31:11;;;;;;;143.65;76.50;;;;;;;0.16;100.00;100383.88;2073317;28;20208;-69
2022/03/17 01:32:18;;;;;;;146.90;74.95;;;;;;;0.14;100.00;100378.03;2074056;28;20647;-69
2022/03/17 01:33:20;;;;;;;146.15;74.53;;;;;;;0.11;100.00;100376.63;2073934;28;20212;-70
2022/03/17 01:34:22;;;;;;;147.80;76.13;;;;;;;0.12;100.00;100382.66;2073867;28;20192;-70
2022/03/17 01:35:26;;;;;;;145.93;75.10;;;;;;;0.11;100.00;100389.72;2073449;28;20231;-70
2022/03/17 01:36:38;;;;;;;144.80;75.13;;;;;;;0.08;100.00;100378.81;2072801;28;20582;-70
2022/03/17 01:37:49;;;;;;;136.93;73.57;;;;;;;0.08;100.00;100389.28;2073948;28;20188;-70
2022/03/17 01:38:57;;;;;;;142.55;75.07;;;;;;;0.05;100.00;100390.50;2073428;28;20197;-70
2022/03/17 01:40:02;;;;;;;139.13;72.75;;;;;;;0.04;100.00;100382.84;2073405;28;20180;-69
2022/03/17 01:41:06;;;;;;;136.75;73.57;;;;;;;0.04;100.00;100393.31;2073871;28;20192;-70
2022/03/17 01:42:11;;;;;;;147.02;75.32;;;;;;;0.00;100.00;100382.44;2073879;28;20192;-69
2022/03/17 01:43:18;;;;;;;149.52;76.13;;;;;;;-0.02;100.00;100379.97;2073884;28;20230;-70
2022/03/17 01:44:23;;;;;;;148.60;75.15;;;;;;;-0.01;100.00;100386.84;2073860;28;20188;-69
2022/03/17 01:45:29;;;;;;;146.20;75.22;;;;;;;-0.04;100.00;100381.97;2073859;28;20195;-70
2022/03/17 01:47:26;;;;;;;145.73;76.32;;;;;;;-0.03;100.00;100390.66;2073806;28;20204;-70
2022/03/17 01:47:56;;;;;;;140.50;73.50;;;;;;;-0.05;100.00;100380.38;2073643;28;20188;-69
2022/03/17 01:48:58;;;;;;;137.73;73.38;;;;;;;-0.09;100.00;100379.16;2073899;28;20279;-70
2022/03/17 01:50:05;;;;;;;145.45;72.95;;;;;;;-0.13;100.00;100379.72;2073209;28;20678;-70
2022/03/17 01:51:15;;;;;;;139.45;73.45;;;;;;;-0.15;100.00;100385.16;2074366;28;20238;-70
2022/03/17 01:52:28;;;;;;;137.63;73.28;;;;;;;-0.18;100.00;100382.09;2075588;28;20177;-70
2022/03/17 01:53:37;;;;;;;153.38;75.90;;;;;;;-0.21;100.00;100383.28;2075482;28;20657;-70
2022/03/17 01:54:41;;;;;;;142.43;73.22;;;;;;;-0.24;100.00;100383.69;2075548;28;20204;-69
2022/03/17 01:55:43;;;;;;;147.15;75.70;;;;;;;-0.26;100.00;100385.72;2066840;28;20196;-70
2022/03/17 01:56:46;;;;;;;132.70;72.10;;;;;;;-0.29;100.00;100378.19;2075018;28;20242;-70
2022/03/17 01:57:58;;;;;;;135.30;72.25;;;;;;;-0.31;100.00;100386.28;2074666;28;20658;-69
2022/03/17 01:59:04;;;;;;;137.23;74.13;;;;;;;-0.33;100.00;100375.16;2074675;28;20291;-69
2022/03/17 02:00:17;;;;;;;142.30;74.53;;;;;;;-0.34;100.00;100378.00;2074946;28;20208;-69
2022/03/17 02:01:27;;;;;;;150.93;71.13;;;;;;;-0.38;100.00;100381.97;2074945;28;20199;-70
2022/03/17 02:02:33;;;;;;;140.07;72.95;;;;;;;-0.41;100.00;100374.50;2067622;28;20205;-70
2022/03/17 02:03:35;;;;;;;138.88;75.03;;;;;;;-0.43;100.00;100372.09;2074748;28;20228;-70
2022/03/17 02:04:42;;;;;;;136.50;75.07;;;;;;;-0.41;100.00;100375.31;2074593;28;20667;-69
2022/03/17 02:05:58;;;;;;;142.45;75.20;;;;;;;-0.42;100.00;100375.50;2067511;28;20671;-70
2022/03/17 02:07:01;;;;;;;141.93;73.15;;;;;;;-0.46;100.00;100377.69;2074500;28;20231;-70
2022/03/17 02:08:14;;;;;;;139.93;74.72;;;;;;;-0.47;100.00;100383.13;2074715;28;20184;-70
2022/03/17 02:09:18;;;;;;;138.82;71.75;;;;;;;-0.50;100.00;100373.84;2075214;28;20697;-70
2022/03/17 02:10:23;;;;;;;146.70;73.55;;;;;;;-0.50;100.00;100379.09;2074737;28;20643;-70
2022/03/17 02:14:09;;;;;;;135.82;70.68;;;;;;;-0.55;100.00;100384.09;2075310;28;20196;-70
2022/03/17 02:15:15;;;;;;;142.65;71.90;;;;;;;-0.58;100.00;100384.47;2074445;28;20255;-69
2022/03/17 02:16:17;;;;;;;136.75;71.28;;;;;;;-0.59;100.00;100388.91;2074760;28;20719;-69
2022/03/17 02:17:21;;;;;;;139.93;71.78;;;;;;;-0.59;100.00;100393.34;2075232;28;20626;-69
2022/03/17 02:18:30;;;;;;;148.57;76.18;;;;;;;-0.61;100.00;100390.91;2075439;28;20200;-69
2022/03/17 02:19:36;;;;;;;138.00;73.30;;;;;;;-0.65;100.00;100394.91;2075191;28;20345;-69
2022/03/17 02:20:43;;;;;;;137.23;71.47;;;;;;;-0.63;100.00;100392.88;2075155;28;20616;-69
2022/03/17 02:21:49;;;;;;;142.63;72.85;;;;;;;-0.66;100.00;100388.03;2066893;28;20351;-70
2022/03/17 02:25:33;;;;;;;142.98;72.88;;;;;;;-0.67;100.00;100390.84;2067053;28;20201;-70
2022/03/17 02:25:46;;;;;;;137.05;70.43;;;;;;;-0.68;100.00;100395.28;2075338;28;20183;-69
2022/03/17 02:26:57;;;;;;;140.35;72.68;;;;;;;-0.70;100.00;100394.63;2075012;28;20659;-70
2022/03/17 02:28:03;;;;;;;147.52;74.70;;;;;;;-0.67;100.00;100396.91;2073991;28;20223;-70
2022/03/17 02:29:05;;;;;;;144.52;73.85;;;;;;;-0.67;100.00;100385.63;2074419;28;20212;-69
2022/03/17 02:30:10;;;;;;;144.45;73.10;;;;;;;-0.70;100.00;100384.16;2074473;28;20192;-70
2022/03/17 02:31:13;;;;;;;140.38;72.20;;;;;;;-0.66;100.00;100397.72;2074418;28;20204;-70
2022/03/17 02:32:21;;;;;;;144.02;72.80;;;;;;;-0.69;100.00;100393.66;2074620;28;20193;-69
2022/03/17 02:33:31;;;;;;;142.77;74.38;;;;;;;-0.70;100.00;100391.22;2075191;28;20169;-70
2022/03/17 02:34:39;;;;;;;138.75;73.22;;;;;;;-0.74;100.00;100396.03;2075139;28;20196;-70
2022/03/17 02:35:45;;;;;;;142.00;73.10;;;;;;;-0.72;100.00;100401.06;2073989;28;20205;-70
2022/03/17 02:36:52;;;;;;;146.18;73.18;;;;;;;-0.74;100.00;100398.66;2074192;28;20358;-69
2022/03/17 02:37:58;;;;;;;139.48;72.68;;;;;;;-0.72;100.00;100407.13;2074831;28;20220;-69
2022/03/17 02:39:02;;;;;;;146.15;73.03;;;;;;;-0.70;100.00;100404.31;2074843;28;20172;-69
2022/03/17 02:40:12;;;;;;;138.65;72.30;;;;;;;-0.70;100.00;100407.75;2075045;28;20338;-70
2022/03/17 02:41:22;;;;;;;141.82;73.10;;;;;;;-0.72;100.00;100407.13;2075150;28;20287;-69
2022/03/17 02:42:25;;;;;;;145.13;73.43;;;;;;;-0.70;100.00;100412.19;2075019;28;20215;-69
2022/03/17 02:43:30;;;;;;;148.15;72.35;;;;;;;-0.70;100.00;100410.38;2074189;28;20636;-69
2022/03/17 02:44:32;;;;;;;140.95;72.97;;;;;;;-0.71;100.00;100410.56;2066943;28;20220;-70
2022/03/17 02:45:35;;;;;;;143.88;73.97;;;;;;;-0.73;100.00;100407.31;2067082;28;20676;-69
2022/03/17 02:46:40;;;;;;;148.70;72.95;;;;;;;-0.74;100.00;100417.00;2074590;28;20197;-69
2022/03/17 02:47:52;;;;;;;141.82;72.70;;;;;;;-0.74;100.00;100417.00;2074346;28;20223;-69
2022/03/17 02:48:58;;;;;;;145.32;72.75;;;;;;;-0.76;100.00;100420.81;2074913;28;20255;-69
2022/03/17 02:50:03;;;;;;;152.30;73.28;;;;;;;-0.78;100.00;100410.53;2074973;28;20280;-69
2022/03/17 02:51:08;;;;;;;140.98;73.72;;;;;;;-0.77;100.00;100419.19;2073706;28;20200;-69
2022/03/17 02:52:09;;;;;;;146.88;75.38;;;;;;;-0.81;100.00;100415.31;2074378;28;20243;-71
2022/03/17 02:53:17;;;;;;;149.07;73.23;;;;;;;-0.80;100.00;100422.16;2074308;28;20196;-70
2022/03/17 02:54:24;;;;;;;136.38;72.20;;;;;;;-0.81;100.00;100431.84;2074428;28;20245;-69
2022/03/17 02:55:42;;;;;;;151.07;75.32;;;;;;;-0.82;100.00;100427.59;2074943;28;20208;-70
2022/03/17 02:56:47;;;;;;;143.90;73.93;;;;;;;-0.83;100.00;100431.22;2075214;28;20180;-69
2022/03/17 02:57:57;;;;;;;146.95;75.63;;;;;;;-0.86;100.00;100429.81;2074126;28;20316;-69
2022/03/17 02:58:58;;;;;;;140.50;71.78;;;;;;;-0.83;100.00;100425.97;2074406;28;20593;-69
2022/03/17 03:00:02;;;;;;;139.05;73.30;;;;;;;-0.87;100.00;100425.56;2074997;28;20188;-69
2022/03/17 03:01:05;;;;;;;146.70;74.75;;;;;;;-0.89;100.00;100435.41;2074724;28;20251;-70
2022/03/17 03:02:14;;;;;;;142.90;72.22;;;;;;;-0.89;100.00;100427.53;2074800;28;20188;-69
2022/03/17 03:03:20;;;;;;;151.07;73.70;;;;;;;-0.90;100.00;100438.22;2074839;28;20203;-69
2022/03/17 03:04:25;;;;;;;140.35;73.82;;;;;;;-0.94;100.00;100437.78;2074055;28;20204;-69
2022/03/17 03:05:36;;;;;;;141.43;71.93;;;;;;;-0.94;100.00;100444.84;2073791;28;20200;-69
2022/03/17 03:06:38;;;;;;;136.63;70.53;;;;;;;-0.97;100.00;100440.75;2073818;28;20348;-69
2022/03/17 03:07:45;;;;;;;139.05;74.20;;;;;;;-0.99;100.00;100444.56;2074341;28;20621;-69
2022/03/17 03:08:50;;;;;;;141.70;73.78;;;;;;;-1.01;100.00;100446.56;2075119;28;20180;-69
2022/03/17 03:09:54;;;;;;;136.30;72.43;;;;;;;-1.04;100.00;100437.28;2074684;28;20564;-69
2022/03/17 03:11:01;;;;;;;147.88;73.28;;;;;;;-1.07;100.00;100448.09;2074784;28;20196;-69
2022/03/17 03:12:05;;;;;;;136.35;72.05;;;;;;;-1.08;100.00;100451.72;2074949;28;20668;-69
2022/03/17 03:13:13;;;;;;;154.00;74.82;;;;;;;-1.13;100.00;100443.59;2073566;28;20200;-69
2022/03/17 03:14:16;;;;;;;147.57;73.32;;;;;;;-1.15;100.00;100446.41;2074298;28;20192;-69
2022/03/17 03:15:24;;;;;;;136.30;72.68;;;;;;;-1.18;100.00;100446.78;2074773;28;20211;-69
2022/03/17 03:16:28;;;;;;;135.25;71.55;;;;;;;-1.19;100.00;100439.13;2074769;28;20725;-69
2022/03/17 03:17:37;;;;;;;137.38;72.90;;;;;;;-1.21;100.00;100441.13;2074701;28;20695;-69
2022/03/17 03:18:44;;;;;;;144.00;72.50;;;;;;;-1.22;100.00;100447.34;2073620;28;20219;-69
2022/03/17 03:19:57;;;;;;;134.68;71.38;;;;;;;-1.25;100.00;100448.53;2074006;28;20205;-68
2022/03/17 03:20:58;;;;;;;132.40;69.43;;;;;;;-1.25;100.00;100445.91;2073726;28;20196;-68
2022/03/17 03:22:04;;;;;;;134.00;70.10;;;;;;;-1.27;100.00;100450.53;2074147;28;20280;-69
2022/03/17 03:23:07;;;;;;;127.22;68.10;;;;;;;-1.27;100.00;100447.09;2067003;28;20448;-69
2022/03/17 03:24:15;;;;;;;141.18;71.70;;;;;;;-1.21;100.00;100444.56;2074228;28;20195;-69
2022/03/17 03:25:23;;;;;;;135.30;69.90;;;;;;;-1.15;100.00;100451.66;2074691;28;20280;-69
2022/03/17 03:26:30;;;;;;;136.63;71.45;;;;;;;-1.14;100.00;100448.03;2073704;28;20211;-69
2022/03/17 03:27:39;;;;;;;144.32;72.78;;;;;;;-1.14;100.00;100453.28;2074087;28;20675;-69
2022/03/17 03:28:44;;;;;;;136.88;70.47;;;;;;;-1.10;100.00;100452.91;2074937;28;20180;-69
2022/03/17 03:29:53;;;;;;;142.98;70.03;;;;;;;-1.10;100.00;100447.69;2074791;28;20667;-69
2022/03/17 03:30:58;;;;;;;140.38;71.05;;;;;;;-1.10;100.00;100443.25;2073506;28;20211;-69
2022/03/17 03:32:08;;;;;;;141.18;72.13;;;;;;;-1.06;100.00;100449.72;2074238;28;20272;-69
2022/03/17 03:33:13;;;;;;;143.55;72.90;;;;;;;-1.06;100.00;100451.53;2074580;28;20239;-69
2022/03/17 03:34:20;;;;;;;130.13;67.90;;;;;;;-1.04;100.00;100446.91;2074982;28;20235;-69
2022/03/17 03:38:12;;;;;;;132.85;67.82;;;;;;;-1.07;100.00;100444.69;2074166;28;20215;-70
2022/03/17 03:39:22;;;;;;;133.50;66.10;;;;;;;-1.06;100.00;100447.09;2073983;28;20547;-70
2022/03/17 03:40:30;;;;;;;132.30;67.45;;;;;;;-1.03;100.00;100453.81;2074284;28;20275;-70
2022/03/17 03:41:38;;;;;;;126.07;67.40;;;;;;;-1.05;100.00;100451.34;2074711;28;20180;-69
2022/03/17 03:42:41;;;;;;;126.68;64.75;;;;;;;-1.01;100.00;100451.81;2073832;28;20255;-69
2022/03/17 03:43:41;;;;;;;126.43;64.22;;;;;;;-1.06;100.00;100457.59;2074251;28;20192;-69
2022/03/17 03:44:48;;;;;;;118.13;64.80;;;;;;;-1.04;100.00;100452.16;2073872;28;20232;-70
2022/03/17 03:45:54;;;;;;;119.35;63.95;;;;;;;-1.05;100.00;100450.53;2073892;28;20234;-69
2022/03/17 03:46:58;;;;;;;115.60;63.88;;;;;;;-1.06;100.00;100454.97;2073263;28;20218;-69
2022/03/17 03:48:03;;;;;;;114.68;62.67;;;;;;;-1.05;100.00;100450.53;2074236;28;20204;-71
2022/03/17 03:49:07;;;;;;;115.88;63.22;;;;;;;-1.02;100.00;100455.44;2073914;28;20638;-70
2022/03/17 03:50:11;;;;;;;110.68;60.88;;;;;;;-0.96;100.00;100452.84;2074512;28;20189;-70
2022/03/17 03:51:21;;;;;;;122.38;62.30;;;;;;;-0.98;100.00;100454.84;2073350;28;20708;-69
2022/03/17 03:52:28;;;;;;;121.82;62.55;;;;;;;-1.00;100.00;100459.47;2073777;28;20227;-69
2022/03/17 03:54:56;;;;;;;123.05;62.88;;;;;;;-0.95;100.00;100457.13;2074353;28;20196;-69
2022/03/17 03:55:58;;;;;;;112.88;61.95;;;;;;;-0.94;100.00;100460.53;2073752;28;20678;-69
2022/03/17 03:57:04;;;;;;;114.90;61.90;;;;;;;-0.98;100.00;100462.72;2073747;28;20254;-69
2022/03/17 03:58:11;;;;;;;113.60;61.03;;;;;;;-0.91;100.00;100462.78;2074102;28;20200;-69
2022/03/17 03:59:19;;;;;;;118.18;62.38;;;;;;;-0.88;100.00;100467.63;2074454;28;20191;-70
2022/03/17 04:01:49;;;;;;;112.57;58.95;;;;;;;-0.98;100.00;100467.13;2081585;28;20210;-70
2022/03/17 04:02:55;;;;;;;120.88;60.70;;;;;;;-1.00;100.00;100469.13;2081646;28;20172;-70
2022/03/17 04:03:59;;;;;;;115.18;60.20;;;;;;;-1.04;100.00;100473.09;2074437;28;20627;-69
2022/03/17 04:05:00;;;;;;;114.07;60.15;;;;;;;-1.03;100.00;100472.94;2074530;28;20207;-69
2022/03/17 04:06:06;;;;;;;128.67;61.63;;;;;;;-0.94;100.00;100478.88;2073998;28;20216;-69
2022/03/17 04:07:15;;;;;;;113.95;62.30;;;;;;;-0.99;100.00;100471.56;2073831;28;20209;-69
2022/03/17 04:08:22;;;;;;;109.85;62.60;;;;;;;-1.02;100.00;100481.63;2073671;28;20231;-69
2022/03/17 04:09:26;;;;;;;119.65;62.25;;;;;;;-1.01;100.00;100478.00;2066706;28;20284;-69
2022/03/17 04:10:32;;;;;;;114.47;62.67;;;;;;;-1.06;100.00;100481.16;2073763;28;20196;-69
2022/03/17 04:11:35;;;;;;;116.38;63.10;;;;;;;-1.05;100.00;100469.69;2073514;28;20760;-69
2022/03/17 04:12:43;;;;;;;110.40;59.58;;;;;;;-0.93;100.00;100496.22;2073752;28;20615;-70
2022/03/17 04:13:47;;;;;;;116.35;62.40;;;;;;;-0.96;100.00;100484.28;2074075;28;20184;-69
2022/03/17 04:14:56;;;;;;;113.32;62.95;;;;;;;-1.03;100.00;100485.22;2074276;28;20659;-69
2022/03/17 04:15:59;;;;;;;113.25;63.33;;;;;;;-1.09;100.00;100481.53;2073307;28;20200;-70
2022/03/17 04:17:04;;;;;;;120.05;63.00;;;;;;;-1.14;100.00;100483.88;2073542;28;20283;-70
2022/03/17 04:18:06;;;;;;;118.40;64.50;;;;;;;-1.19;100.00;100486.25;2073969;28;20196;-70
2022/03/17 04:19:15;;;;;;;124.38;65.13;;;;;;;-1.11;100.00;100487.97;2074552;28;20192;-69
2022/03/17 04:20:23;;;;;;;131.57;63.35;;;;;;;-1.20;100.00;100488.06;2074505;28;20192;-69
2022/03/17 04:21:30;;;;;;;115.15;62.78;;;;;;;-1.26;100.00;100488.78;2074126;28;20230;-69
2022/03/17 04:22:37;;;;;;;126.10;64.63;;;;;;;-1.28;100.00;100493.41;2074440;28;20609;-69
2022/03/17 04:23:45;;;;;;;122.28;65.32;;;;;;;-1.33;100.00;100501.00;2074073;28;20234;-70
2022/03/17 04:24:49;;;;;;;128.88;64.10;;;;;;;-1.37;100.00;100504.97;2074535;28;20627;-69
2022/03/17 04:25:52;;;;;;;124.70;63.83;;;;;;;-1.44;100.00;100504.06;2074397;28;20615;-71
2022/03/17 04:26:58;;;;;;;125.10;65.63;;;;;;;-1.39;100.00;100506.97;2073590;28;20227;-69
2022/03/17 04:28:09;;;;;;;118.75;63.45;;;;;;;-1.47;100.00;100507.88;2073395;28;20235;-69
2022/03/17 04:29:18;;;;;;;122.28;64.82;;;;;;;-1.47;100.00;100517.53;2073891;28;20243;-69
2022/03/17 04:30:25;;;;;;;128.38;64.78;;;;;;;-1.53;100.00;100516.44;2074205;28;20242;-70
2022/03/17 04:31:28;;;;;;;124.60;64.22;;;;;;;-1.55;100.00;100515.00;2074201;28;20192;-69
2022/03/17 04:32:31;;;;;;;119.45;64.47;;;;;;;-1.58;100.00;100518.78;2073402;28;20212;-69
2022/03/17 04:33:39;;;;;;;118.55;65.75;;;;;;;-1.63;100.00;100515.09;2073461;28;20347;-69
2022/03/17 04:34:47;;;;;;;123.85;62.20;;;;;;;-1.59;100.00;100511.13;2073623;28;20653;-69
2022/03/17 04:35:59;;;;;;;121.70;63.67;;;;;;;-1.62;100.00;100519.34;2073728;28;20204;-69
2022/03/17 04:37:05;;;;;;;124.43;63.05;;;;;;;-1.65;100.00;100523.13;2073125;28;20249;-69
2022/03/17 04:38:13;;;;;;;121.00;61.65;;;;;;;-1.69;100.00;100524.47;2073628;28;20216;-70
2022/03/17 04:39:16;;;;;;;117.43;62.00;;;;;;;-1.72;100.00;100522.22;2073381;28;20690;-69
2022/03/17 04:40:18;;;;;;;112.20;61.47;;;;;;;-1.76;100.00;100527.00;2066430;28;20588;-69
2022/03/17 04:41:22;;;;;;;115.20;62.75;;;;;;;-1.79;100.00;100516.09;2073667;28;20192;-69
2022/03/17 04:42:30;;;;;;;122.90;63.33;;;;;;;-1.81;100.00;100521.50;2074142;28;20651;-70
2022/03/17 04:43:37;;;;;;;118.22;62.50;;;;;;;-1.82;100.00;100524.31;2074097;28;20254;-70
2022/03/17 04:44:48;;;;;;;106.78;61.45;;;;;;;-1.86;100.00;100531.69;2074218;28;20187;-69
2022/03/17 04:45:51;;;;;;;121.97;63.10;;;;;;;-1.90;100.00;100525.19;2074066;28;20196;-69
2022/03/17 04:46:54;;;;;;;121.30;64.20;;;;;;;-1.92;100.00;100529.75;2074120;28;20223;-70
2022/03/17 04:47:59;;;;;;;123.35;64.57;;;;;;;-1.95;100.00;100530.13;2074139;28;20737;-70
2022/03/17 04:49:06;;;;;;;122.40;64.43;;;;;;;-1.95;100.00;100537.16;2073264;28;20287;-70
2022/03/17 04:50:14;;;;;;;119.90;65.28;;;;;;;-1.96;100.00;100536.34;2073564;28;20611;-69
2022/03/17 04:51:15;;;;;;;123.22;63.10;;;;;;;-1.98;100.00;100532.31;2073663;28;20310;-70
2022/03/17 04:53:48;;;;;;;123.90;64.25;;;;;;;-2.02;100.00;100535.25;2073420;28;20299;-70
2022/03/17 04:54:49;;;;;;;123.50;64.03;;;;;;;-2.03;100.00;100540.66;2073713;28;20596;-70
2022/03/17 04:55:57;;;;;;;124.93;65.53;;;;;;;-2.01;100.00;100538.69;2074082;28;20192;-70
2022/03/17 04:57:07;;;;;;;137.23;66.30;;;;;;;-2.03;100.00;100535.44;2074088;28;20196;-70
2022/03/17 04:58:14;;;;;;;119.88;62.88;;;;;;;-2.00;100.00;100541.13;2074331;28;20169;-70
2022/03/17 04:59:21;;;;;;;124.43;67.20;;;;;;;-2.01;100.00;100544.72;2074043;28;20605;-70
2022/03/17 05:00:28;;;;;;;117.40;64.82;;;;;;;-2.02;100.00;100537.06;2074291;28;20226;-70
2022/03/17 05:01:34;;;;;;;125.03;65.18;;;;;;;-2.03;100.00;100535.44;2072939;28;20682;-71
2022/03/17 05:02:36;;;;;;;118.45;64.78;;;;;;;-2.04;100.00;100541.66;2073793;28;20746;-70
2022/03/17 05:03:43;;;;;;;122.55;65.75;;;;;;;-2.02;100.00;100542.28;2065024;28;20212;-70
2022/03/17 05:04:53;;;;;;;122.97;65.15;;;;;;;-2.04;100.00;100544.28;2073605;28;20193;-70
2022/03/17 05:05:58;;;;;;;125.53;66.30;;;;;;;-2.04;100.00;100550.31;2073457;28;20208;-70